sensor_id;sensor_type;location;lat;lon;timestamp;P1;durP1;ratioP1;P2;durP2;ratioP2
35803;SDS011;21924;51.934;7.414;2023-05-10T00:01:52;11.63;;;5.28;;
35803;SDS011;21924;51.934;7.414;2023-05-10T00:04:36;7.82;;;4.88;;
35803;SDS011;21924;51.934;7.414;2023-05-10T00:07:20;10.57;;;5.30;;
35803;SDS011;21924;51.934;7.414;2023-05-10T00:10:04;9.88;;;5.47;;
35803;SDS011;21924;51.934;7.414;2023-05-10T00:12:49;8.88;;;5.53;;
35803;SDS011;21924;51.934;7.414;2023-05-10T00:15:33;10.40;;;4.90;;
35803;SDS011;21924;51.934;7.414;2023-05-10T00:18:18;9.05;;;5.47;;
35803;SDS011;21924;51.934;7.414;2023-05-10T00:21:02;8.32;;;5.28;;
35803;SDS011;21924;51.934;7.414;2023-05-10T00:23:46;9.85;;;5.03;;
35803;SDS011;21924;51.934;7.414;2023-05-10T00:26:31;11.38;;;5.28;;
35803;SDS011;21924;51.934;7.414;2023-05-10T00:29:15;9.65;;;5.00;;
35803;SDS011;21924;51.934;7.414;2023-05-10T00:31:59;8.23;;;4.63;;
35803;SDS011;21924;51.934;7.414;2023-05-10T00:34:44;8.98;;;5.13;;
35803;SDS011;21924;51.934;7.414;2023-05-10T00:37:28;7.95;;;5.13;;
35803;SDS011;21924;51.934;7.414;2023-05-10T00:40:12;9.18;;;5.00;;
35803;SDS011;21924;51.934;7.414;2023-05-10T00:42:57;8.88;;;4.85;;
35803;SDS011;21924;51.934;7.414;2023-05-10T00:45:41;9.45;;;4.95;;
35803;SDS011;21924;51.934;7.414;2023-05-10T00:48:26;7.55;;;4.78;;
35803;SDS011;21924;51.934;7.414;2023-05-10T00:51:12;4.35;;;2.78;;
35803;SDS011;21924;51.934;7.414;2023-05-10T00:53:57;3.45;;;2.50;;
35803;SDS011;21924;51.934;7.414;2023-05-10T00:56:41;3.75;;;2.38;;
35803;SDS011;21924;51.934;7.414;2023-05-10T00:59:31;2.15;;;1.60;;
35803;SDS011;21924;51.934;7.414;2023-05-10T01:02:16;3.05;;;1.90;;
35803;SDS011;21924;51.934;7.414;2023-05-10T01:05:01;2.75;;;2.03;;
35803;SDS011;21924;51.934;7.414;2023-05-10T01:07:46;2.70;;;2.13;;
35803;SDS011;21924;51.934;7.414;2023-05-10T01:10:31;7.28;;;2.55;;
35803;SDS011;21924;51.934;7.414;2023-05-10T01:13:23;2.78;;;2.30;;
35803;SDS011;21924;51.934;7.414;2023-05-10T01:16:23;4.00;;;2.72;;
35803;SDS011;21924;51.934;7.414;2023-05-10T01:19:18;3.25;;;1.88;;
35803;SDS011;21924;51.934;7.414;2023-05-10T01:28:45;3.15;;;2.30;;
35803;SDS011;21924;51.934;7.414;2023-05-10T01:32:16;1.30;;;1.20;;
35803;SDS011;21924;51.934;7.414;2023-05-10T01:35:10;3.92;;;1.50;;
35803;SDS011;21924;51.934;7.414;2023-05-10T01:41:14;1.85;;;1.50;;
35803;SDS011;21924;51.934;7.414;2023-05-10T01:44:18;1.40;;;1.30;;
35803;SDS011;21924;51.934;7.414;2023-05-10T01:47:15;1.77;;;1.40;;
35803;SDS011;21924;51.934;7.414;2023-05-10T01:50:10;2.65;;;1.77;;
35803;SDS011;21924;51.934;7.414;2023-05-10T01:52:59;2.10;;;1.52;;
35803;SDS011;21924;51.934;7.414;2023-05-10T01:55:46;2.03;;;1.80;;
35803;SDS011;21924;51.934;7.414;2023-05-10T01:58:32;2.13;;;1.90;;
35803;SDS011;21924;51.934;7.414;2023-05-10T02:01:20;3.50;;;2.40;;
35803;SDS011;21924;51.934;7.414;2023-05-10T02:04:06;2.85;;;2.20;;
35803;SDS011;21924;51.934;7.414;2023-05-10T02:06:52;3.72;;;2.45;;
35803;SDS011;21924;51.934;7.414;2023-05-10T02:12:23;3.38;;;2.47;;
35803;SDS011;21924;51.934;7.414;2023-05-10T02:15:08;3.28;;;1.90;;
35803;SDS011;21924;51.934;7.414;2023-05-10T02:17:55;3.88;;;2.45;;
35803;SDS011;21924;51.934;7.414;2023-05-10T02:23:27;5.05;;;3.08;;
35803;SDS011;21924;51.934;7.414;2023-05-10T02:26:12;3.97;;;2.60;;
35803;SDS011;21924;51.934;7.414;2023-05-10T02:28:57;9.23;;;2.38;;
35803;SDS011;21924;51.934;7.414;2023-05-10T02:31:42;3.53;;;2.58;;
35803;SDS011;21924;51.934;7.414;2023-05-10T02:34:27;3.33;;;2.42;;
35803;SDS011;21924;51.934;7.414;2023-05-10T02:37:13;6.78;;;3.50;;
35803;SDS011;21924;51.934;7.414;2023-05-10T02:39:59;5.47;;;3.30;;
35803;SDS011;21924;51.934;7.414;2023-05-10T02:42:47;7.45;;;3.20;;
35803;SDS011;21924;51.934;7.414;2023-05-10T02:45:33;5.05;;;3.22;;
35803;SDS011;21924;51.934;7.414;2023-05-10T02:48:20;6.65;;;3.47;;
35803;SDS011;21924;51.934;7.414;2023-05-10T02:51:04;5.28;;;3.63;;
35803;SDS011;21924;51.934;7.414;2023-05-10T02:56:36;8.95;;;3.40;;
35803;SDS011;21924;51.934;7.414;2023-05-10T02:59:26;5.93;;;3.65;;
35803;SDS011;21924;51.934;7.414;2023-05-10T03:02:13;5.25;;;3.38;;
35803;SDS011;21924;51.934;7.414;2023-05-10T03:04:58;7.70;;;4.13;;
35803;SDS011;21924;51.934;7.414;2023-05-10T03:07:43;4.82;;;3.28;;
35803;SDS011;21924;51.934;7.414;2023-05-10T03:10:28;6.38;;;3.80;;
35803;SDS011;21924;51.934;7.414;2023-05-10T03:13:31;7.80;;;3.60;;
35803;SDS011;21924;51.934;7.414;2023-05-10T03:16:27;5.95;;;3.47;;
35803;SDS011;21924;51.934;7.414;2023-05-10T03:19:22;6.15;;;3.83;;
35803;SDS011;21924;51.934;7.414;2023-05-10T03:22:11;5.10;;;3.55;;
35803;SDS011;21924;51.934;7.414;2023-05-10T03:25:02;6.00;;;3.38;;
35803;SDS011;21924;51.934;7.414;2023-05-10T03:27:49;7.65;;;3.55;;
35803;SDS011;21924;51.934;7.414;2023-05-10T03:30:35;5.63;;;3.40;;
35803;SDS011;21924;51.934;7.414;2023-05-10T03:33:20;6.72;;;3.95;;
35803;SDS011;21924;51.934;7.414;2023-05-10T03:36:04;5.43;;;3.55;;
35803;SDS011;21924;51.934;7.414;2023-05-10T03:38:49;6.40;;;3.75;;
35803;SDS011;21924;51.934;7.414;2023-05-10T03:41:33;7.28;;;3.85;;
35803;SDS011;21924;51.934;7.414;2023-05-10T03:44:17;6.20;;;4.50;;
35803;SDS011;21924;51.934;7.414;2023-05-10T03:47:01;5.63;;;3.97;;
35803;SDS011;21924;51.934;7.414;2023-05-10T03:49:46;7.00;;;4.07;;
35803;SDS011;21924;51.934;7.414;2023-05-10T03:52:30;9.85;;;4.65;;
35803;SDS011;21924;51.934;7.414;2023-05-10T03:55:15;8.90;;;4.65;;
35803;SDS011;21924;51.934;7.414;2023-05-10T03:58:00;11.20;;;5.25;;
35803;SDS011;21924;51.934;7.414;2023-05-10T04:00:44;10.57;;;5.47;;
35803;SDS011;21924;51.934;7.414;2023-05-10T04:03:29;9.82;;;5.85;;
35803;SDS011;21924;51.934;7.414;2023-05-10T04:06:13;16.30;;;6.30;;
35803;SDS011;21924;51.934;7.414;2023-05-10T04:08:57;11.13;;;5.57;;
35803;SDS011;21924;51.934;7.414;2023-05-10T04:11:43;11.10;;;5.88;;
35803;SDS011;21924;51.934;7.414;2023-05-10T04:14:28;11.05;;;6.53;;
35803;SDS011;21924;51.934;7.414;2023-05-10T04:17:12;12.43;;;6.78;;
35803;SDS011;21924;51.934;7.414;2023-05-10T04:19:56;18.73;;;6.82;;
35803;SDS011;21924;51.934;7.414;2023-05-10T04:22:40;20.42;;;8.20;;
35803;SDS011;21924;51.934;7.414;2023-05-10T04:25:24;13.68;;;7.07;;
35803;SDS011;21924;51.934;7.414;2023-05-10T04:28:08;16.00;;;7.72;;
35803;SDS011;21924;51.934;7.414;2023-05-10T04:30:53;19.85;;;7.72;;
35803;SDS011;21924;51.934;7.414;2023-05-10T04:33:43;19.38;;;7.55;;
35803;SDS011;21924;51.934;7.414;2023-05-10T04:36:27;18.75;;;8.45;;
35803;SDS011;21924;51.934;7.414;2023-05-10T04:39:12;17.20;;;8.25;;
35803;SDS011;21924;51.934;7.414;2023-05-10T04:41:57;15.65;;;8.30;;
35803;SDS011;21924;51.934;7.414;2023-05-10T04:44:41;24.55;;;8.80;;
35803;SDS011;21924;51.934;7.414;2023-05-10T04:47:25;18.08;;;9.05;;
35803;SDS011;21924;51.934;7.414;2023-05-10T04:50:10;20.17;;;9.27;;
35803;SDS011;21924;51.934;7.414;2023-05-10T04:52:54;22.67;;;10.05;;
35803;SDS011;21924;51.934;7.414;2023-05-10T04:55:38;21.98;;;10.48;;
35803;SDS011;21924;51.934;7.414;2023-05-10T04:58:23;26.85;;;10.40;;
35803;SDS011;21924;51.934;7.414;2023-05-10T05:01:07;24.50;;;11.15;;
35803;SDS011;21924;51.934;7.414;2023-05-10T05:03:52;28.10;;;10.88;;
35803;SDS011;21924;51.934;7.414;2023-05-10T05:06:36;28.92;;;11.10;;
35803;SDS011;21924;51.934;7.414;2023-05-10T05:09:21;30.80;;;10.95;;
35803;SDS011;21924;51.934;7.414;2023-05-10T05:12:05;30.13;;;10.35;;
35803;SDS011;21924;51.934;7.414;2023-05-10T05:14:49;27.20;;;11.38;;
35803;SDS011;21924;51.934;7.414;2023-05-10T05:17:33;28.88;;;11.55;;
35803;SDS011;21924;51.934;7.414;2023-05-10T05:20:18;33.72;;;12.85;;
35803;SDS011;21924;51.934;7.414;2023-05-10T05:23:02;35.28;;;12.48;;
35803;SDS011;21924;51.934;7.414;2023-05-10T05:25:46;35.60;;;14.02;;
35803;SDS011;21924;51.934;7.414;2023-05-10T05:28:31;38.50;;;13.98;;
35803;SDS011;21924;51.934;7.414;2023-05-10T05:31:17;32.38;;;12.57;;
35803;SDS011;21924;51.934;7.414;2023-05-10T05:34:01;42.15;;;13.63;;
35803;SDS011;21924;51.934;7.414;2023-05-10T05:36:45;48.42;;;15.10;;
35803;SDS011;21924;51.934;7.414;2023-05-10T05:39:30;40.47;;;14.68;;
35803;SDS011;21924;51.934;7.414;2023-05-10T05:42:14;39.97;;;14.07;;
35803;SDS011;21924;51.934;7.414;2023-05-10T05:45:00;38.95;;;15.07;;
35803;SDS011;21924;51.934;7.414;2023-05-10T05:47:44;43.65;;;14.65;;
35803;SDS011;21924;51.934;7.414;2023-05-10T05:50:28;39.33;;;14.07;;
35803;SDS011;21924;51.934;7.414;2023-05-10T05:53:12;42.53;;;15.30;;
35803;SDS011;21924;51.934;7.414;2023-05-10T05:55:57;38.33;;;13.77;;
35803;SDS011;21924;51.934;7.414;2023-05-10T05:58:42;39.92;;;13.90;;
35803;SDS011;21924;51.934;7.414;2023-05-10T06:01:27;33.45;;;11.95;;
35803;SDS011;21924;51.934;7.414;2023-05-10T06:04:11;31.20;;;11.48;;
35803;SDS011;21924;51.934;7.414;2023-05-10T06:06:56;31.25;;;10.93;;
35803;SDS011;21924;51.934;7.414;2023-05-10T06:09:40;30.38;;;10.52;;
35803;SDS011;21924;51.934;7.414;2023-05-10T06:12:25;31.98;;;11.57;;
35803;SDS011;21924;51.934;7.414;2023-05-10T06:15:09;32.67;;;12.48;;
35803;SDS011;21924;51.934;7.414;2023-05-10T06:17:53;32.25;;;12.77;;
35803;SDS011;21924;51.934;7.414;2023-05-10T06:20:38;31.95;;;13.07;;
35803;SDS011;21924;51.934;7.414;2023-05-10T06:23:24;36.75;;;13.20;;
35803;SDS011;21924;51.934;7.414;2023-05-10T06:26:09;38.05;;;14.38;;
35803;SDS011;21924;51.934;7.414;2023-05-10T06:28:53;42.22;;;14.30;;
35803;SDS011;21924;51.934;7.414;2023-05-10T06:31:38;41.58;;;16.00;;
35803;SDS011;21924;51.934;7.414;2023-05-10T06:34:22;44.10;;;17.27;;
35803;SDS011;21924;51.934;7.414;2023-05-10T06:37:06;50.03;;;18.92;;
35803;SDS011;21924;51.934;7.414;2023-05-10T06:39:50;53.85;;;20.05;;
35803;SDS011;21924;51.934;7.414;2023-05-10T06:42:35;59.60;;;20.55;;
35803;SDS011;21924;51.934;7.414;2023-05-10T06:45:19;57.53;;;21.27;;
35803;SDS011;21924;51.934;7.414;2023-05-10T06:48:04;60.25;;;22.30;;
35803;SDS011;21924;51.934;7.414;2023-05-10T06:50:48;60.58;;;22.20;;
35803;SDS011;21924;51.934;7.414;2023-05-10T06:53:32;64.28;;;22.25;;
35803;SDS011;21924;51.934;7.414;2023-05-10T06:56:17;56.40;;;20.83;;
35803;SDS011;21924;51.934;7.414;2023-05-10T06:59:01;62.58;;;22.95;;
35803;SDS011;21924;51.934;7.414;2023-05-10T07:01:45;60.10;;;23.75;;
35803;SDS011;21924;51.934;7.414;2023-05-10T07:04:29;59.50;;;22.27;;
35803;SDS011;21924;51.934;7.414;2023-05-10T07:07:14;52.75;;;20.65;;
35803;SDS011;21924;51.934;7.414;2023-05-10T07:09:58;54.40;;;20.73;;
35803;SDS011;21924;51.934;7.414;2023-05-10T07:12:42;55.65;;;21.42;;
35803;SDS011;21924;51.934;7.414;2023-05-10T07:15:27;56.03;;;22.33;;
35803;SDS011;21924;51.934;7.414;2023-05-10T07:18:12;43.55;;;18.25;;
35803;SDS011;21924;51.934;7.414;2023-05-10T07:20:56;44.17;;;17.67;;
35803;SDS011;21924;51.934;7.414;2023-05-10T07:23:40;52.38;;;19.98;;
35803;SDS011;21924;51.934;7.414;2023-05-10T07:26:24;54.08;;;19.38;;
35803;SDS011;21924;51.934;7.414;2023-05-10T07:29:09;49.42;;;19.50;;
35803;SDS011;21924;51.934;7.414;2023-05-10T07:31:54;41.90;;;17.92;;
35803;SDS011;21924;51.934;7.414;2023-05-10T07:34:38;43.33;;;17.75;;
35803;SDS011;21924;51.934;7.414;2023-05-10T07:37:22;42.50;;;18.23;;
35803;SDS011;21924;51.934;7.414;2023-05-10T07:40:07;38.85;;;18.40;;
35803;SDS011;21924;51.934;7.414;2023-05-10T07:42:51;43.42;;;16.80;;
35803;SDS011;21924;51.934;7.414;2023-05-10T07:45:36;45.95;;;17.02;;
35803;SDS011;21924;51.934;7.414;2023-05-10T07:48:20;44.20;;;18.58;;
35803;SDS011;21924;51.934;7.414;2023-05-10T07:51:04;44.40;;;16.70;;
35803;SDS011;21924;51.934;7.414;2023-05-10T07:53:51;50.53;;;18.90;;
35803;SDS011;21924;51.934;7.414;2023-05-10T07:56:35;39.47;;;17.80;;
35803;SDS011;21924;51.934;7.414;2023-05-10T07:59:19;40.25;;;17.90;;
35803;SDS011;21924;51.934;7.414;2023-05-10T08:02:04;42.67;;;17.17;;
35803;SDS011;21924;51.934;7.414;2023-05-10T08:04:48;43.40;;;16.75;;
35803;SDS011;21924;51.934;7.414;2023-05-10T08:07:33;37.95;;;17.67;;
35803;SDS011;21924;51.934;7.414;2023-05-10T08:10:17;40.83;;;16.65;;
35803;SDS011;21924;51.934;7.414;2023-05-10T08:13:01;39.83;;;16.42;;
35803;SDS011;21924;51.934;7.414;2023-05-10T08:15:46;40.63;;;17.65;;
35803;SDS011;21924;51.934;7.414;2023-05-10T08:18:31;40.72;;;17.33;;
35803;SDS011;21924;51.934;7.414;2023-05-10T08:21:15;41.42;;;17.02;;
35803;SDS011;21924;51.934;7.414;2023-05-10T08:23:59;40.50;;;18.25;;
35803;SDS011;21924;51.934;7.414;2023-05-10T08:26:43;40.65;;;16.00;;
35803;SDS011;21924;51.934;7.414;2023-05-10T08:29:27;44.90;;;18.10;;
35803;SDS011;21924;51.934;7.414;2023-05-10T08:32:12;37.00;;;16.08;;
35803;SDS011;21924;51.934;7.414;2023-05-10T08:34:56;33.88;;;16.00;;
35803;SDS011;21924;51.934;7.414;2023-05-10T08:37:40;39.40;;;17.13;;
35803;SDS011;21924;51.934;7.414;2023-05-10T08:40:25;44.67;;;18.40;;
35803;SDS011;21924;51.934;7.414;2023-05-10T08:43:11;41.97;;;18.65;;
35803;SDS011;21924;51.934;7.414;2023-05-10T08:45:56;44.13;;;18.05;;
35803;SDS011;21924;51.934;7.414;2023-05-10T08:48:46;42.05;;;17.63;;
35803;SDS011;21924;51.934;7.414;2023-05-10T08:51:33;39.22;;;15.57;;
35803;SDS011;21924;51.934;7.414;2023-05-10T08:54:23;39.38;;;16.40;;
35803;SDS011;21924;51.934;7.414;2023-05-10T08:57:08;35.05;;;15.85;;
35803;SDS011;21924;51.934;7.414;2023-05-10T08:59:52;31.63;;;13.50;;
35803;SDS011;21924;51.934;7.414;2023-05-10T09:02:37;32.20;;;14.07;;
35803;SDS011;21924;51.934;7.414;2023-05-10T09:05:21;34.88;;;13.88;;
35803;SDS011;21924;51.934;7.414;2023-05-10T09:08:06;31.65;;;13.25;;
35803;SDS011;21924;51.934;7.414;2023-05-10T09:10:51;26.65;;;13.25;;
35803;SDS011;21924;51.934;7.414;2023-05-10T09:13:36;28.63;;;12.13;;
35803;SDS011;21924;51.934;7.414;2023-05-10T09:16:21;25.83;;;12.30;;
35803;SDS011;21924;51.934;7.414;2023-05-10T09:19:05;30.52;;;12.70;;
35803;SDS011;21924;51.934;7.414;2023-05-10T09:21:50;28.85;;;14.15;;
35803;SDS011;21924;51.934;7.414;2023-05-10T09:24:35;31.38;;;13.60;;
35803;SDS011;21924;51.934;7.414;2023-05-10T09:27:26;31.77;;;14.20;;
35803;SDS011;21924;51.934;7.414;2023-05-10T09:30:11;27.60;;;12.95;;
35803;SDS011;21924;51.934;7.414;2023-05-10T09:33:07;26.88;;;11.93;;
35803;SDS011;21924;51.934;7.414;2023-05-10T09:35:51;25.98;;;13.13;;
35803;SDS011;21924;51.934;7.414;2023-05-10T09:38:44;25.17;;;11.98;;
35803;SDS011;21924;51.934;7.414;2023-05-10T09:41:33;25.10;;;12.77;;
35803;SDS011;21924;51.934;7.414;2023-05-10T09:44:17;23.88;;;11.80;;
35803;SDS011;21924;51.934;7.414;2023-05-10T09:47:03;29.93;;;12.33;;
35803;SDS011;21924;51.934;7.414;2023-05-10T09:49:50;29.55;;;14.23;;
35803;SDS011;21924;51.934;7.414;2023-05-10T09:52:45;31.17;;;13.43;;
35803;SDS011;21924;51.934;7.414;2023-05-10T09:58:29;29.58;;;13.15;;
35803;SDS011;21924;51.934;7.414;2023-05-10T10:01:13;31.33;;;13.55;;
35803;SDS011;21924;51.934;7.414;2023-05-10T10:03:57;30.55;;;13.77;;
35803;SDS011;21924;51.934;7.414;2023-05-10T10:06:41;34.40;;;13.75;;
35803;SDS011;21924;51.934;7.414;2023-05-10T10:09:26;30.27;;;14.15;;
35803;SDS011;21924;51.934;7.414;2023-05-10T10:12:11;27.38;;;13.07;;
35803;SDS011;21924;51.934;7.414;2023-05-10T10:14:55;27.95;;;12.20;;
35803;SDS011;21924;51.934;7.414;2023-05-10T10:17:40;26.08;;;13.38;;
35803;SDS011;21924;51.934;7.414;2023-05-10T10:20:27;29.10;;;12.40;;
35803;SDS011;21924;51.934;7.414;2023-05-10T10:23:12;32.40;;;10.90;;
35803;SDS011;21924;51.934;7.414;2023-05-10T10:25:56;29.50;;;13.02;;
35803;SDS011;21924;51.934;7.414;2023-05-10T10:29:00;27.38;;;12.45;;
35803;SDS011;21924;51.934;7.414;2023-05-10T10:32:09;26.83;;;12.85;;
35803;SDS011;21924;51.934;7.414;2023-05-10T10:35:05;26.97;;;12.10;;
35803;SDS011;21924;51.934;7.414;2023-05-10T10:37:51;28.02;;;12.02;;
35803;SDS011;21924;51.934;7.414;2023-05-10T10:40:36;25.55;;;12.18;;
35803;SDS011;21924;51.934;7.414;2023-05-10T10:43:21;21.65;;;10.50;;
35803;SDS011;21924;51.934;7.414;2023-05-10T10:46:16;25.08;;;12.27;;
35803;SDS011;21924;51.934;7.414;2023-05-10T10:49:10;26.95;;;11.60;;
35803;SDS011;21924;51.934;7.414;2023-05-10T10:55:18;24.25;;;11.52;;
35803;SDS011;21924;51.934;7.414;2023-05-10T10:58:05;27.45;;;12.25;;
35803;SDS011;21924;51.934;7.414;2023-05-10T11:00:51;21.20;;;11.30;;
35803;SDS011;21924;51.934;7.414;2023-05-10T11:06:44;23.30;;;11.57;;
35803;SDS011;21924;51.934;7.414;2023-05-10T11:09:28;26.10;;;12.07;;
35803;SDS011;21924;51.934;7.414;2023-05-10T11:12:23;24.90;;;11.47;;
35803;SDS011;21924;51.934;7.414;2023-05-10T11:15:08;25.58;;;12.45;;
35803;SDS011;21924;51.934;7.414;2023-05-10T11:17:53;28.70;;;12.70;;
35803;SDS011;21924;51.934;7.414;2023-05-10T11:20:38;33.42;;;13.25;;
35803;SDS011;21924;51.934;7.414;2023-05-10T11:23:29;27.75;;;13.35;;
35803;SDS011;21924;51.934;7.414;2023-05-10T11:26:32;30.13;;;13.32;;
35803;SDS011;21924;51.934;7.414;2023-05-10T11:29:18;29.90;;;13.80;;
35803;SDS011;21924;51.934;7.414;2023-05-10T11:32:03;26.50;;;12.80;;
35803;SDS011;21924;51.934;7.414;2023-05-10T11:34:51;24.88;;;12.30;;
35803;SDS011;21924;51.934;7.414;2023-05-10T11:37:36;28.17;;;12.82;;
35803;SDS011;21924;51.934;7.414;2023-05-10T11:40:21;25.52;;;12.15;;
35803;SDS011;21924;51.934;7.414;2023-05-10T11:43:08;30.75;;;12.82;;
35803;SDS011;21924;51.934;7.414;2023-05-10T11:45:54;25.80;;;11.32;;
35803;SDS011;21924;51.934;7.414;2023-05-10T11:48:38;22.90;;;11.00;;
35803;SDS011;21924;51.934;7.414;2023-05-10T11:51:24;23.50;;;10.98;;
35803;SDS011;21924;51.934;7.414;2023-05-10T11:54:09;25.95;;;12.32;;
35803;SDS011;21924;51.934;7.414;2023-05-10T11:56:54;29.23;;;12.55;;
35803;SDS011;21924;51.934;7.414;2023-05-10T11:59:39;25.73;;;12.13;;
35803;SDS011;21924;51.934;7.414;2023-05-10T12:02:24;24.85;;;11.60;;
35803;SDS011;21924;51.934;7.414;2023-05-10T12:05:08;25.90;;;10.00;;
35803;SDS011;21924;51.934;7.414;2023-05-10T12:07:53;28.90;;;11.07;;
35803;SDS011;21924;51.934;7.414;2023-05-10T12:11:05;21.88;;;10.52;;
35803;SDS011;21924;51.934;7.414;2023-05-10T12:13:50;19.27;;;10.65;;
35803;SDS011;21924;51.934;7.414;2023-05-10T12:16:35;17.80;;;9.40;;
35803;SDS011;21924;51.934;7.414;2023-05-10T12:19:19;21.38;;;10.25;;
35803;SDS011;21924;51.934;7.414;2023-05-10T12:22:05;23.70;;;10.27;;
35803;SDS011;21924;51.934;7.414;2023-05-10T12:24:50;22.30;;;10.53;;
35803;SDS011;21924;51.934;7.414;2023-05-10T12:27:34;19.67;;;10.00;;
35803;SDS011;21924;51.934;7.414;2023-05-10T12:30:26;21.60;;;8.77;;
35803;SDS011;21924;51.934;7.414;2023-05-10T12:33:12;25.27;;;10.35;;
35803;SDS011;21924;51.934;7.414;2023-05-10T12:35:58;15.95;;;8.32;;
35803;SDS011;21924;51.934;7.414;2023-05-10T12:38:44;16.38;;;8.30;;
35803;SDS011;21924;51.934;7.414;2023-05-10T12:41:31;15.18;;;8.23;;
35803;SDS011;21924;51.934;7.414;2023-05-10T12:44:16;18.25;;;7.75;;
35803;SDS011;21924;51.934;7.414;2023-05-10T12:47:00;20.05;;;8.43;;
35803;SDS011;21924;51.934;7.414;2023-05-10T12:49:44;15.50;;;8.00;;
35803;SDS011;21924;51.934;7.414;2023-05-10T12:52:29;16.08;;;8.10;;
35803;SDS011;21924;51.934;7.414;2023-05-10T12:55:15;16.92;;;8.73;;
35803;SDS011;21924;51.934;7.414;2023-05-10T12:57:59;16.52;;;8.77;;
35803;SDS011;21924;51.934;7.414;2023-05-10T13:00:44;19.30;;;10.02;;
35803;SDS011;21924;51.934;7.414;2023-05-10T13:03:28;25.35;;;11.00;;
35803;SDS011;21924;51.934;7.414;2023-05-10T13:06:13;20.52;;;10.85;;
35803;SDS011;21924;51.934;7.414;2023-05-10T13:08:57;21.67;;;10.27;;
35803;SDS011;21924;51.934;7.414;2023-05-10T13:11:41;22.10;;;9.90;;
35803;SDS011;21924;51.934;7.414;2023-05-10T13:14:26;18.75;;;7.78;;
35803;SDS011;21924;51.934;7.414;2023-05-10T13:17:10;19.75;;;9.52;;
35803;SDS011;21924;51.934;7.414;2023-05-10T13:19:55;19.67;;;9.70;;
35803;SDS011;21924;51.934;7.414;2023-05-10T13:22:39;17.95;;;9.60;;
35803;SDS011;21924;51.934;7.414;2023-05-10T13:25:24;23.75;;;10.00;;
35803;SDS011;21924;51.934;7.414;2023-05-10T13:28:08;23.10;;;10.20;;
35803;SDS011;21924;51.934;7.414;2023-05-10T13:30:52;20.58;;;10.00;;
35803;SDS011;21924;51.934;7.414;2023-05-10T13:33:37;19.90;;;10.25;;
35803;SDS011;21924;51.934;7.414;2023-05-10T13:36:21;20.75;;;10.95;;
35803;SDS011;21924;51.934;7.414;2023-05-10T13:39:06;22.65;;;10.85;;
35803;SDS011;21924;51.934;7.414;2023-05-10T13:41:50;26.08;;;11.75;;
35803;SDS011;21924;51.934;7.414;2023-05-10T13:44:34;24.98;;;12.57;;
35803;SDS011;21924;51.934;7.414;2023-05-10T13:47:19;25.50;;;11.75;;
35803;SDS011;21924;51.934;7.414;2023-05-10T13:50:05;24.33;;;12.07;;
35803;SDS011;21924;51.934;7.414;2023-05-10T13:52:50;24.50;;;11.82;;
35803;SDS011;21924;51.934;7.414;2023-05-10T13:55:34;25.05;;;11.27;;
35803;SDS011;21924;51.934;7.414;2023-05-10T13:58:18;25.67;;;11.70;;
35803;SDS011;21924;51.934;7.414;2023-05-10T14:01:02;28.70;;;13.02;;
35803;SDS011;21924;51.934;7.414;2023-05-10T14:03:48;29.15;;;11.88;;
35803;SDS011;21924;51.934;7.414;2023-05-10T14:06:33;29.20;;;11.40;;
35803;SDS011;21924;51.934;7.414;2023-05-10T14:09:17;29.80;;;10.90;;
35803;SDS011;21924;51.934;7.414;2023-05-10T14:12:02;26.05;;;11.07;;
35803;SDS011;21924;51.934;7.414;2023-05-10T14:14:46;24.38;;;11.90;;
35803;SDS011;21924;51.934;7.414;2023-05-10T14:17:30;26.13;;;11.93;;
35803;SDS011;21924;51.934;7.414;2023-05-10T14:20:14;25.98;;;12.40;;
35803;SDS011;21924;51.934;7.414;2023-05-10T14:22:59;30.00;;;13.68;;
35803;SDS011;21924;51.934;7.414;2023-05-10T14:25:44;24.13;;;12.68;;
35803;SDS011;21924;51.934;7.414;2023-05-10T14:28:28;25.27;;;12.20;;
35803;SDS011;21924;51.934;7.414;2023-05-10T14:31:12;22.83;;;9.95;;
35803;SDS011;21924;51.934;7.414;2023-05-10T14:33:57;23.73;;;10.98;;
35803;SDS011;21924;51.934;7.414;2023-05-10T14:36:43;24.48;;;10.05;;
35803;SDS011;21924;51.934;7.414;2023-05-10T14:39:27;18.98;;;9.85;;
35803;SDS011;21924;51.934;7.414;2023-05-10T14:42:13;21.20;;;9.95;;
35803;SDS011;21924;51.934;7.414;2023-05-10T14:44:57;19.50;;;8.95;;
35803;SDS011;21924;51.934;7.414;2023-05-10T14:47:41;15.90;;;7.90;;
35803;SDS011;21924;51.934;7.414;2023-05-10T14:50:26;15.80;;;7.13;;
35803;SDS011;21924;51.934;7.414;2023-05-10T14:53:10;17.63;;;7.00;;
35803;SDS011;21924;51.934;7.414;2023-05-10T14:55:54;11.88;;;6.20;;
35803;SDS011;21924;51.934;7.414;2023-05-10T14:58:38;12.38;;;6.03;;
35803;SDS011;21924;51.934;7.414;2023-05-10T15:01:22;15.40;;;6.15;;
35803;SDS011;21924;51.934;7.414;2023-05-10T15:04:07;11.40;;;5.97;;
35803;SDS011;21924;51.934;7.414;2023-05-10T15:06:51;12.15;;;5.90;;
35803;SDS011;21924;51.934;7.414;2023-05-10T15:09:35;14.45;;;7.05;;
35803;SDS011;21924;51.934;7.414;2023-05-10T15:12:20;13.60;;;6.18;;
35803;SDS011;21924;51.934;7.414;2023-05-10T15:15:05;9.43;;;5.13;;
35803;SDS011;21924;51.934;7.414;2023-05-10T15:17:50;11.75;;;6.03;;
35803;SDS011;21924;51.934;7.414;2023-05-10T15:20:34;9.70;;;5.50;;
35803;SDS011;21924;51.934;7.414;2023-05-10T15:23:19;13.15;;;6.90;;
35803;SDS011;21924;51.934;7.414;2023-05-10T15:26:03;13.15;;;6.63;;
35803;SDS011;21924;51.934;7.414;2023-05-10T15:28:47;12.18;;;5.53;;
35803;SDS011;21924;51.934;7.414;2023-05-10T15:31:31;12.48;;;6.85;;
35803;SDS011;21924;51.934;7.414;2023-05-10T15:34:18;11.68;;;5.68;;
35803;SDS011;21924;51.934;7.414;2023-05-10T15:37:02;14.82;;;6.82;;
35803;SDS011;21924;51.934;7.414;2023-05-10T15:39:46;14.88;;;6.43;;
35803;SDS011;21924;51.934;7.414;2023-05-10T15:42:31;13.90;;;6.00;;
35803;SDS011;21924;51.934;7.414;2023-05-10T15:45:15;20.25;;;6.30;;
35803;SDS011;21924;51.934;7.414;2023-05-10T15:48:00;13.48;;;6.18;;
35803;SDS011;21924;51.934;7.414;2023-05-10T15:50:44;16.08;;;6.95;;
35803;SDS011;21924;51.934;7.414;2023-05-10T15:53:28;14.65;;;6.65;;
35803;SDS011;21924;51.934;7.414;2023-05-10T15:56:12;14.82;;;6.65;;
35803;SDS011;21924;51.934;7.414;2023-05-10T15:58:57;17.42;;;7.90;;
35803;SDS011;21924;51.934;7.414;2023-05-10T16:01:41;16.33;;;7.38;;
35803;SDS011;21924;51.934;7.414;2023-05-10T16:04:25;14.90;;;7.65;;
35803;SDS011;21924;51.934;7.414;2023-05-10T16:07:09;20.00;;;7.57;;
35803;SDS011;21924;51.934;7.414;2023-05-10T16:09:54;14.65;;;7.68;;
35803;SDS011;21924;51.934;7.414;2023-05-10T16:12:38;17.25;;;7.53;;
35803;SDS011;21924;51.934;7.414;2023-05-10T16:15:23;12.40;;;6.47;;
35803;SDS011;21924;51.934;7.414;2023-05-10T16:18:07;15.40;;;7.18;;
35803;SDS011;21924;51.934;7.414;2023-05-10T16:20:52;14.70;;;6.45;;
35803;SDS011;21924;51.934;7.414;2023-05-10T16:23:36;16.48;;;6.85;;
35803;SDS011;21924;51.934;7.414;2023-05-10T16:26:21;12.25;;;6.55;;
35803;SDS011;21924;51.934;7.414;2023-05-10T16:29:06;18.23;;;7.32;;
35803;SDS011;21924;51.934;7.414;2023-05-10T16:31:50;17.45;;;7.60;;
35803;SDS011;21924;51.934;7.414;2023-05-10T16:34:35;14.02;;;7.05;;
35803;SDS011;21924;51.934;7.414;2023-05-10T16:37:19;13.48;;;6.45;;
35803;SDS011;21924;51.934;7.414;2023-05-10T16:40:03;12.40;;;7.20;;
35803;SDS011;21924;51.934;7.414;2023-05-10T16:42:48;11.77;;;5.30;;
35803;SDS011;21924;51.934;7.414;2023-05-10T16:45:32;9.50;;;4.80;;
35803;SDS011;21924;51.934;7.414;2023-05-10T16:48:16;10.05;;;4.82;;